Time;durP1;ratioP1;P1;durP2;ratioP2;P2;SDS_P1;SDS_P2;PMS_P1;PMS_P2;Temp;Humidity;BMP_temperature;BMP_pressure;BME280_temperature;BME280_humidity;BME280_pressure;Samples;Min_cycle;Max_cycle;Signal;HPM_P1;HPM_P2
2023/11/10 00:00:10;;;;;;;3.97;2.13;;;6.50;99.90;;;;;;5139528;27;20433;-70
2023/11/10 00:02:39;;;;;;;5.27;2.40;;;6.50;99.90;;;;;;5139522;27;20458;-70
2023/11/10 00:05:06;;;;;;;4.27;2.20;;;6.50;99.90;;;;;;5138821;27;20491;-73
2023/11/10 00:07:35;;;;;;;5.50;3.20;;;6.40;99.90;;;;;;5138557;27;20429;-70
2023/11/10 00:10:04;;;;;;;9.13;2.20;;;6.40;99.90;;;;;;5139119;27;20451;-70
2023/11/10 00:12:31;;;;;;;4.90;2.43;;;6.40;99.90;;;;;;5139145;27;20441;-71
2023/11/10 00:14:59;;;;;;;3.83;2.00;;;6.40;99.90;;;;;;5139241;27;20458;-67
2023/11/10 00:17:26;;;;;;;3.73;2.10;;;6.30;99.90;;;;;;5138640;27;20465;-69
2023/11/10 00:19:53;;;;;;;5.60;2.40;;;6.30;99.90;;;;;;5138521;27;20751;-71
2023/11/10 00:22:21;;;;;;;9.00;2.80;;;6.40;99.90;;;;;;5138138;27;20470;-71
2023/11/10 00:24:50;;;;;;;5.27;2.10;;;6.30;99.90;;;;;;5139181;27;20489;-69
2023/11/10 00:27:17;;;;;;;4.57;2.17;;;6.30;99.90;;;;;;5138547;27;20938;-71
2023/11/10 00:29:45;;;;;;;3.60;2.20;;;6.40;99.90;;;;;;5138782;27;20433;-66
2023/11/10 00:32:13;;;;;;;6.57;2.30;;;6.40;99.90;;;;;;5139264;27;20459;-72
2023/11/10 00:34:41;;;;;;;4.60;2.37;;;6.40;99.90;;;;;;5138684;27;20458;-71
2023/11/10 00:37:08;;;;;;;5.60;2.43;;;6.30;99.90;;;;;;5137888;27;20440;-71
2023/11/10 00:39:36;;;;;;;5.13;2.50;;;6.40;99.90;;;;;;5139086;27;20573;-71
2023/11/10 00:42:04;;;;;;;3.50;2.20;;;6.40;99.90;;;;;;5138783;27;20483;-72
2023/11/10 00:44:32;;;;;;;4.97;1.90;;;6.40;99.90;;;;;;5137953;27;20552;-69
2023/11/10 00:46:59;;;;;;;4.77;2.00;;;6.50;99.90;;;;;;5138421;27;20871;-71
2023/11/10 00:49:26;;;;;;;6.17;2.43;;;6.40;99.90;;;;;;5138470;28;20498;-72
2023/11/10 00:51:53;;;;;;;3.80;2.00;;;6.50;99.90;;;;;;5138159;28;20524;-69
2023/11/10 00:54:20;;;;;;;3.40;2.30;;;6.50;99.90;;;;;;5138370;28;20875;-70
2023/11/10 00:56:48;;;;;;;4.07;2.67;;;6.50;99.90;;;;;;5138834;28;20455;-70
2023/11/10 00:59:16;;;;;;;5.67;2.80;;;6.50;99.90;;;;;;5138334;27;20455;-68
2023/11/10 01:01:43;;;;;;;4.13;2.23;;;6.50;99.90;;;;;;5141842;27;20429;-69
2023/11/10 01:04:10;;;;;;;4.97;2.17;;;6.50;99.90;;;;;;5142570;27;20577;-71
2023/11/10 01:06:38;;;;;;;4.63;2.00;;;6.50;99.90;;;;;;5142300;27;20458;-72
2023/11/10 01:09:05;;;;;;;6.00;2.20;;;6.50;99.90;;;;;;5141827;27;20454;-72
2023/11/10 01:11:32;;;;;;;5.40;2.13;;;6.50;99.90;;;;;;5142222;27;20465;-71
2023/11/10 01:13:59;;;;;;;5.70;2.30;;;6.50;99.90;;;;;;5142653;27;20958;-71
2023/11/10 01:16:29;;;;;;;3.63;2.10;;;6.50;99.90;;;;;;5142152;27;20454;-71
2023/11/10 01:18:57;;;;;;;3.60;2.10;;;6.50;99.90;;;;;;5142193;27;20453;-71
2023/11/10 01:21:24;;;;;;;5.97;2.10;;;6.50;99.90;;;;;;5141917;27;20475;-68
2023/11/10 01:23:52;;;;;;;4.10;2.10;;;6.60;99.90;;;;;;5142243;27;20486;-67
2023/11/10 01:26:20;;;;;;;8.50;2.63;;;6.60;99.90;;;;;;5143110;27;20458;-68
2023/11/10 01:28:47;;;;;;;4.00;2.17;;;6.60;99.90;;;;;;5141070;27;20490;-69
2023/11/10 01:31:15;;;;;;;3.67;1.93;;;6.60;99.90;;;;;;5141726;27;20437;-69
2023/11/10 01:33:43;;;;;;;4.70;2.33;;;6.60;99.90;;;;;;5141889;27;20459;-69
2023/11/10 01:36:11;;;;;;;5.27;2.40;;;6.60;99.90;;;;;;5142228;27;20456;-70
2023/11/10 01:38:39;;;;;;;6.80;2.20;;;6.60;99.90;;;;;;5141853;27;20863;-70
2023/11/10 01:41:07;;;;;;;5.00;2.10;;;6.60;99.90;;;;;;5141765;27;20798;-68
2023/11/10 01:43:34;;;;;;;3.73;2.40;;;6.60;99.90;;;;;;5142400;27;20436;-72
2023/11/10 01:46:01;;;;;;;4.40;2.37;;;6.60;99.90;;;;;;5142732;27;20462;-70
2023/11/10 01:48:29;;;;;;;5.27;2.20;;;6.70;99.90;;;;;;5143187;27;20457;-71
2023/11/10 01:50:59;;;;;;;3.93;2.07;;;6.70;99.90;;;;;;5142426;27;20556;-71
2023/11/10 01:53:26;;;;;;;3.70;2.10;;;6.70;99.90;;;;;;5141742;27;20944;-73
2023/11/10 01:55:53;;;;;;;3.03;1.93;;;6.80;99.90;;;;;;5142089;27;20455;-73
2023/11/10 01:58:20;;;;;;;3.57;1.90;;;6.80;99.90;;;;;;5141802;27;20457;-73
2023/11/10 02:00:49;;;;;;;4.17;1.97;;;6.80;99.90;;;;;;5141601;27;20875;-73
2023/11/10 02:03:16;;;;;;;5.30;2.00;;;6.80;99.90;;;;;;5141535;27;20458;-73
2023/11/10 02:05:44;;;;;;;3.03;2.00;;;6.90;99.90;;;;;;5141310;27;20555;-73
2023/11/10 02:08:12;;;;;;;4.20;2.50;;;6.80;99.90;;;;;;5141086;27;20760;-72
2023/11/10 02:10:39;;;;;;;4.97;2.83;;;6.80;99.90;;;;;;5141111;27;20489;-72
2023/11/10 02:13:07;;;;;;;9.20;2.17;;;6.80;99.90;;;;;;5142228;27;20524;-68
2023/11/10 02:15:34;;;;;;;5.80;2.67;;;6.80;99.90;;;;;;5141775;27;20497;-69
2023/11/10 02:18:01;;;;;;;6.30;2.50;;;6.80;99.90;;;;;;5140597;27;20466;-68
2023/11/10 02:20:28;;;;;;;3.13;1.90;;;6.90;99.90;;;;;;5141363;27;20493;-67
2023/11/10 02:22:55;;;;;;;3.83;1.90;;;6.80;99.90;;;;;;5140719;27;20792;-66
2023/11/10 02:25:24;;;;;;;4.17;1.83;;;6.80;99.90;;;;;;5140863;27;20560;-68
2023/11/10 02:27:51;;;;;;;5.43;2.10;;;6.90;99.90;;;;;;5140837;27;20707;-64
2023/11/10 02:30:19;;;;;;;3.60;1.80;;;6.80;99.90;;;;;;5140817;27;20486;-69
2023/11/10 02:32:46;;;;;;;4.07;2.03;;;6.80;99.90;;;;;;5140839;27;20458;-70
2023/11/10 02:35:14;;;;;;;3.83;2.27;;;6.80;99.90;;;;;;5140496;27;20533;-69
2023/11/10 02:37:41;;;;;;;7.40;3.03;;;6.80;99.90;;;;;;5140354;27;20486;-69
2023/11/10 02:40:10;;;;;;;4.60;2.20;;;6.80;99.90;;;;;;5140811;27;20430;-70
2023/11/10 02:42:38;;;;;;;4.27;2.10;;;6.80;99.90;;;;;;5140851;27;20454;-70
2023/11/10 02:45:07;;;;;;;4.03;2.10;;;6.80;99.90;;;;;;5140169;27;20950;-70
2023/11/10 02:47:35;;;;;;;4.17;2.07;;;6.70;99.90;;;;;;5140153;27;20459;-70
2023/11/10 02:50:03;;;;;;;2.90;1.90;;;6.70;99.90;;;;;;5140464;27;20454;-70
2023/11/10 02:52:30;;;;;;;7.87;2.50;;;6.70;99.90;;;;;;5140515;27;20457;-71
2023/11/10 02:54:57;;;;;;;3.07;2.13;;;6.70;99.90;;;;;;5140844;27;20754;-70
2023/11/10 02:57:26;;;;;;;3.13;2.33;;;6.70;99.90;;;;;;5140580;27;20537;-70
2023/11/10 02:59:54;;;;;;;4.73;2.27;;;6.70;99.90;;;;;;5140663;27;20746;-67
2023/11/10 03:02:21;;;;;;;3.87;1.90;;;6.60;99.90;;;;;;5140386;27;20454;-70
2023/11/10 03:04:49;;;;;;;3.70;2.20;;;6.50;99.90;;;;;;5141712;27;20513;-71
2023/11/10 03:07:16;;;;;;;5.13;1.90;;;6.50;99.90;;;;;;5140684;27;20465;-73
2023/11/10 03:09:44;;;;;;;4.50;2.40;;;6.50;99.90;;;;;;5140469;27;20538;-72
2023/11/10 03:12:11;;;;;;;5.53;2.33;;;6.40;99.90;;;;;;5140248;27;20459;-72
2023/11/10 03:14:42;;;;;;;8.57;2.37;;;6.50;99.90;;;;;;5140233;27;20821;-71
2023/11/10 03:17:10;;;;;;;3.80;2.27;;;6.50;99.90;;;;;;5139825;27;20458;-72
2023/11/10 03:19:38;;;;;;;8.47;2.40;;;6.50;99.90;;;;;;5139762;27;20485;-73
2023/11/10 03:22:05;;;;;;;5.33;2.50;;;6.50;99.90;;;;;;5140237;27;20462;-73
2023/11/10 03:24:32;;;;;;;4.20;2.40;;;6.50;99.90;;;;;;5139396;27;20924;-70
2023/11/10 03:26:59;;;;;;;3.90;2.43;;;6.60;99.90;;;;;;5140790;27;20447;-69
2023/11/10 03:29:27;;;;;;;4.50;2.23;;;6.60;99.90;;;;;;5140259;27;20457;-72
2023/11/10 03:31:55;;;;;;;4.60;2.10;;;6.60;99.90;;;;;;5139905;27;20485;-73
2023/11/10 03:34:24;;;;;;;5.03;2.03;;;6.60;99.90;;;;;;5140381;27;20738;-73
2023/11/10 03:36:52;;;;;;;6.77;2.30;;;6.60;99.90;;;;;;5140233;27;20461;-73
2023/11/10 03:39:20;;;;;;;5.10;2.30;;;6.60;99.90;;;;;;5139412;27;20491;-73
2023/11/10 03:41:48;;;;;;;3.23;1.93;;;6.70;99.90;;;;;;5139730;27;20469;-72
2023/11/10 03:44:15;;;;;;;4.73;1.90;;;6.60;99.90;;;;;;5139663;27;20494;-72
2023/11/10 03:46:43;;;;;;;6.67;2.47;;;6.60;99.90;;;;;;5139331;27;20476;-72
2023/11/10 03:49:10;;;;;;;4.63;2.20;;;6.60;99.90;;;;;;5139403;27;20507;-68
2023/11/10 03:51:39;;;;;;;3.30;2.30;;;6.70;99.90;;;;;;5139388;27;20528;-68
2023/11/10 03:54:08;;;;;;;5.40;2.10;;;6.60;99.90;;;;;;5139162;27;20478;-67
2023/11/10 03:56:36;;;;;;;5.03;2.10;;;6.60;99.90;;;;;;5139141;27;20458;-69
2023/11/10 03:59:04;;;;;;;4.43;2.07;;;6.60;99.90;;;;;;5138583;27;20458;-71
2023/11/10 04:01:31;;;;;;;4.70;2.00;;;6.60;99.90;;;;;;5138876;27;20463;-70
2023/11/10 04:03:59;;;;;;;5.60;2.63;;;6.60;99.90;;;;;;5139341;27;20463;-70
2023/11/10 04:06:26;;;;;;;6.90;2.10;;;6.50;99.90;;;;;;5139062;27;20489;-71
2023/11/10 04:08:54;;;;;;;7.43;2.50;;;6.60;99.90;;;;;;5139663;27;20549;-70
2023/11/10 04:11:22;;;;;;;5.53;3.17;;;6.60;99.90;;;;;;5139262;27;20729;-71
2023/11/10 04:13:49;;;;;;;4.40;2.57;;;6.60;99.90;;;;;;5139668;27;20761;-71
2023/11/10 04:16:17;;;;;;;3.90;2.33;;;6.60;99.90;;;;;;5139155;27;20455;-71
2023/11/10 04:18:45;;;;;;;4.20;2.30;;;6.60;99.90;;;;;;5139161;27;20496;-72
2023/11/10 04:21:12;;;;;;;4.80;2.77;;;6.60;99.90;;;;;;5138510;27;20508;-71
2023/11/10 04:23:41;;;;;;;5.40;2.67;;;6.70;99.90;;;;;;5138333;27;20454;-68
2023/11/10 04:26:10;;;;;;;5.97;2.30;;;6.70;99.90;;;;;;5138389;27;20594;-72
2023/11/10 04:28:38;;;;;;;7.00;2.50;;;6.70;99.90;;;;;;5138788;27;20486;-72
2023/11/10 04:31:05;;;;;;;5.20;2.80;;;6.70;99.90;;;;;;5138866;27;20486;-73
2023/11/10 04:33:33;;;;;;;4.43;2.63;;;6.80;99.90;;;;;;5139171;27;20429;-72
2023/11/10 04:36:00;;;;;;;4.73;2.67;;;6.80;99.90;;;;;;5138964;27;20461;-72
2023/11/10 04:38:27;;;;;;;7.60;3.30;;;6.70;99.90;;;;;;5138394;27;20497;-73
2023/11/10 04:40:55;;;;;;;5.23;2.50;;;6.70;99.90;;;;;;5139563;27;20454;-70
2023/11/10 04:43:23;;;;;;;6.83;3.50;;;6.70;99.90;;;;;;5139051;27;20459;-72
2023/11/10 04:45:51;;;;;;;3.60;2.30;;;6.70;99.90;;;;;;5138884;27;20779;-71
2023/11/10 04:48:18;;;;;;;4.33;2.20;;;6.70;99.90;;;;;;5138668;27;20433;-71
2023/11/10 04:50:45;;;;;;;5.63;2.67;;;6.70;99.90;;;;;;5138801;27;20474;-63
2023/11/10 04:53:13;;;;;;;7.70;3.00;;;6.70;99.90;;;;;;5138091;28;20528;-69
2023/11/10 04:55:40;;;;;;;5.63;2.70;;;6.70;99.90;;;;;;5138791;28;20462;-68
2023/11/10 04:58:08;;;;;;;5.13;2.47;;;6.70;99.90;;;;;;5138699;28;20421;-69
2023/11/10 05:00:36;;;;;;;5.80;2.90;;;6.70;99.90;;;;;;5138607;28;20440;-68
2023/11/10 05:03:06;;;;;;;5.10;2.67;;;6.70;99.90;;;;;;5137942;28;20550;-69
2023/11/10 05:05:34;;;;;;;6.03;2.47;;;6.70;99.90;;;;;;5137829;28;20458;-69
2023/11/10 05:08:02;;;;;;;10.37;3.00;;;6.70;99.90;;;;;;5138069;28;20757;-71
2023/11/10 05:10:30;;;;;;;5.60;2.83;;;6.70;99.90;;;;;;5137751;27;20855;-68
2023/11/10 05:12:57;;;;;;;7.70;3.50;;;6.60;99.90;;;;;;5137026;27;20452;-70
2023/11/10 05:15:25;;;;;;;8.13;3.20;;;6.60;99.90;;;;;;5138248;27;20894;-71
2023/11/10 05:17:54;;;;;;;5.03;2.77;;;6.60;99.90;;;;;;5137834;28;20437;-71
2023/11/10 05:20:21;;;;;;;6.47;3.00;;;6.70;99.90;;;;;;5139134;28;20458;-71
2023/11/10 05:22:48;;;;;;;4.00;2.60;;;6.70;99.90;;;;;;5138437;28;20451;-72
2023/11/10 05:25:16;;;;;;;5.90;2.83;;;6.70;99.90;;;;;;5137743;28;20772;-72
2023/11/10 05:27:43;;;;;;;6.40;3.07;;;6.70;99.90;;;;;;5135504;27;20483;-67
2023/11/10 05:30:12;;;;;;;7.17;2.73;;;6.70;99.90;;;;;;5127554;28;20494;-70
2023/11/10 05:32:39;;;;;;;6.20;2.90;;;6.70;99.90;;;;;;5137850;28;20975;-73
2023/11/10 05:35:08;;;;;;;5.23;2.70;;;6.70;99.90;;;;;;5138151;28;20436;-72
2023/11/10 05:37:36;;;;;;;3.57;2.30;;;6.70;99.90;;;;;;5138150;28;20484;-67
2023/11/10 05:40:03;;;;;;;6.63;2.80;;;6.70;99.90;;;;;;5139239;28;20459;-66
2023/11/10 05:42:31;;;;;;;6.70;2.47;;;6.60;99.90;;;;;;5138571;28;20451;-67
2023/11/10 05:44:58;;;;;;;5.00;2.73;;;6.60;99.90;;;;;;5138745;28;20455;-66
2023/11/10 05:47:27;;;;;;;5.57;2.57;;;6.70;99.90;;;;;;5135677;27;20439;-67
2023/11/10 05:49:54;;;;;;;5.80;3.10;;;6.70;99.90;;;;;;5141785;27;20531;-67
2023/11/10 05:52:23;;;;;;;7.90;3.10;;;6.70;99.90;;;;;;5141200;27;20446;-68
2023/11/10 05:54:51;;;;;;;10.87;4.17;;;6.70;99.90;;;;;;5141620;27;20867;-66
2023/11/10 05:57:18;;;;;;;6.53;3.50;;;6.70;99.90;;;;;;5140826;27;20458;-67
2023/11/10 05:59:46;;;;;;;7.00;4.03;;;6.70;99.90;;;;;;5140762;27;20848;-67
2023/11/10 06:02:17;;;;;;;9.13;4.70;;;6.70;99.90;;;;;;5140962;27;20852;-67
2023/11/10 06:04:45;;;;;;;10.17;4.13;;;6.80;99.90;;;;;;5142223;27;20437;-67
2023/11/10 06:07:12;;;;;;;20.93;4.73;;;6.80;99.90;;;;;;5140740;27;20490;-67
2023/11/10 06:09:41;;;;;;;7.80;4.20;;;6.80;99.90;;;;;;5139676;27;20462;-67
2023/11/10 06:12:09;;;;;;;5.27;2.80;;;6.80;99.90;;;;;;5139305;27;20455;-67
2023/11/10 06:14:36;;;;;;;6.73;2.63;;;6.80;99.90;;;;;;5139962;27;20893;-69
2023/11/10 06:17:04;;;;;;;7.30;3.57;;;6.80;99.90;;;;;;5139636;27;20451;-66
2023/11/10 06:19:31;;;;;;;9.43;4.83;;;6.80;99.90;;;;;;5139753;27;20490;-67
2023/11/10 06:21:58;;;;;;;6.57;3.50;;;6.80;99.90;;;;;;5139743;27;20549;-68
2023/11/10 06:24:26;;;;;;;6.73;2.63;;;6.80;99.90;;;;;;5141158;27;20890;-68
2023/11/10 06:26:54;;;;;;;7.20;2.70;;;6.90;99.90;;;;;;5140756;27;20485;-67
2023/11/10 06:29:22;;;;;;;8.87;3.23;;;6.80;99.90;;;;;;5138379;27;20475;-67
2023/11/10 06:31:49;;;;;;;7.70;2.97;;;6.80;99.90;;;;;;5137415;27;20448;-68
2023/11/10 06:34:17;;;;;;;6.03;2.53;;;6.90;99.90;;;;;;5139453;27;20459;-67
2023/11/10 06:36:45;;;;;;;9.03;4.30;;;6.90;99.90;;;;;;5140439;27;20459;-65
2023/11/10 06:39:13;;;;;;;5.83;2.93;;;6.90;99.90;;;;;;5138887;27;20483;-66
2023/11/10 06:41:40;;;;;;;6.27;2.77;;;6.90;99.90;;;;;;5139583;27;20462;-65
2023/11/10 06:44:09;;;;;;;5.60;3.00;;;6.90;99.90;;;;;;5139292;27;20465;-64
2023/11/10 06:46:36;;;;;;;10.67;3.37;;;6.90;99.90;;;;;;5139867;27;21005;-65
2023/11/10 06:49:04;;;;;;;8.50;3.07;;;6.90;99.90;;;;;;5137844;27;20759;-65
2023/11/10 06:51:32;;;;;;;4.77;3.20;;;6.90;99.90;;;;;;5138989;27;20481;-66
2023/11/10 06:54:00;;;;;;;16.43;8.23;;;6.90;99.90;;;;;;5140096;27;20499;-65
2023/11/10 06:56:27;;;;;;;7.33;3.23;;;6.90;99.90;;;;;;5140365;27;20451;-65
2023/11/10 06:58:54;;;;;;;6.10;3.07;;;6.90;99.90;;;;;;5138224;27;20478;-66
2023/11/10 07:01:23;;;;;;;4.43;2.70;;;6.90;99.90;;;;;;5139643;27;20864;-65
2023/11/10 07:03:50;;;;;;;7.53;3.43;;;7.00;99.90;;;;;;5139139;27;20469;-66
2023/11/10 07:06:18;;;;;;;5.40;3.00;;;7.00;99.90;;;;;;5138230;27;20547;-65
2023/11/10 07:08:45;;;;;;;4.57;3.00;;;7.00;99.90;;;;;;5138036;27;20459;-63
2023/11/10 07:11:15;;;;;;;4.53;2.60;;;7.00;99.90;;;;;;5137303;27;20463;-65
2023/11/10 07:13:42;;;;;;;3.77;2.80;;;7.00;99.90;;;;;;5131063;27;20463;-65
2023/11/10 07:16:10;;;;;;;5.60;3.17;;;7.10;99.90;;;;;;5131850;27;20425;-66
2023/11/10 07:18:39;;;;;;;5.43;3.10;;;7.10;99.90;;;;;;5136970;27;20546;-64
2023/11/10 07:21:06;;;;;;;5.67;2.87;;;7.10;99.90;;;;;;5138110;27;20888;-65
2023/11/10 07:23:34;;;;;;;4.67;3.03;;;7.10;99.90;;;;;;5138056;27;20507;-66
2023/11/10 07:26:01;;;;;;;9.50;5.17;;;7.10;99.90;;;;;;5137766;27;20565;-66
2023/11/10 07:28:30;;;;;;;5.83;3.53;;;7.10;99.90;;;;;;5138139;27;20426;-65
2023/11/10 07:30:57;;;;;;;8.30;4.20;;;7.20;99.90;;;;;;5137400;27;20459;-65
2023/11/10 07:33:25;;;;;;;8.03;3.60;;;7.20;99.90;;;;;;5133610;27;20951;-65
2023/11/10 07:35:54;;;;;;;10.80;3.70;;;7.20;99.90;;;;;;5138482;27;20473;-66
2023/11/10 07:38:21;;;;;;;5.03;2.57;;;7.20;99.90;;;;;;5137872;27;20489;-65
2023/11/10 07:40:49;;;;;;;8.93;4.67;;;7.20;99.90;;;;;;5138800;27;20477;-65
2023/11/10 07:43:17;;;;;;;6.67;3.30;;;7.30;99.90;;;;;;5138194;27;20455;-66
2023/11/10 07:45:46;;;;;;;7.40;3.70;;;7.40;99.90;;;;;;5138036;27;20493;-66
2023/11/10 07:48:13;;;;;;;9.80;3.83;;;7.30;99.90;;;;;;5138341;27;20887;-66
2023/11/10 07:50:42;;;;;;;7.93;3.10;;;7.30;99.90;;;;;;5137459;27;20483;-65
2023/11/10 07:53:12;;;;;;;5.10;3.03;;;7.30;99.90;;;;;;5137602;27;20519;-65
2023/11/10 07:55:39;;;;;;;5.20;3.50;;;7.30;99.90;;;;;;5135261;27;20490;-65
2023/11/10 07:58:06;;;;;;;11.83;4.27;;;7.30;99.90;;;;;;5138382;27;20458;-66
2023/11/10 08:00:34;;;;;;;7.27;3.63;;;7.20;99.90;;;;;;5138421;27;20425;-65
2023/11/10 08:03:02;;;;;;;5.90;3.73;;;7.20;99.90;;;;;;5136808;27;20429;-66
2023/11/10 08:05:29;;;;;;;4.13;2.73;;;7.20;99.90;;;;;;5138193;27;20879;-66
2023/11/10 08:07:56;;;;;;;5.80;3.23;;;7.30;99.90;;;;;;5137249;27;20517;-66
2023/11/10 08:10:25;;;;;;;5.20;3.33;;;7.50;99.90;;;;;;5137749;27;20511;-66
2023/11/10 08:12:54;;;;;;;5.70;2.70;;;7.60;99.90;;;;;;5138296;27;20429;-67
2023/11/10 08:15:21;;;;;;;5.23;2.80;;;7.60;99.90;;;;;;5137815;27;20451;-66
2023/11/10 08:17:49;;;;;;;4.67;2.93;;;7.60;99.90;;;;;;5138086;27;20451;-66
2023/11/10 08:20:18;;;;;;;6.83;3.20;;;7.70;99.90;;;;;;5138183;27;20466;-67
2023/11/10 08:22:46;;;;;;;7.77;4.63;;;7.70;99.90;;;;;;5137520;27;20466;-67
2023/11/10 08:25:13;;;;;;;7.17;2.63;;;7.70;99.90;;;;;;5119098;27;20880;-65
2023/11/10 08:27:44;;;;;;;5.10;2.73;;;7.60;99.90;;;;;;5138032;27;20828;-68
2023/11/10 08:30:13;;;;;;;3.83;2.87;;;7.70;99.90;;;;;;5136773;27;20787;-67
2023/11/10 08:32:41;;;;;;;6.87;3.10;;;7.70;99.90;;;;;;5136152;27;20876;-66
2023/11/10 08:35:09;;;;;;;6.80;3.70;;;7.80;99.90;;;;;;5136492;27;20455;-66
2023/11/10 08:37:37;;;;;;;6.27;2.97;;;7.80;99.90;;;;;;5136994;27;20581;-67
2023/11/10 08:40:06;;;;;;;5.87;3.10;;;7.90;99.90;;;;;;5137452;27;20434;-67
2023/11/10 08:42:34;;;;;;;6.37;2.83;;;8.00;99.90;;;;;;5137579;27;20915;-67
2023/11/10 08:45:03;;;;;;;5.07;3.37;;;8.10;99.90;;;;;;5136729;27;20515;-66
2023/11/10 08:47:30;;;;;;;5.27;3.03;;;8.30;99.90;;;;;;5137530;27;20490;-67
2023/11/10 08:49:58;;;;;;;7.33;2.30;;;8.30;99.90;;;;;;5137562;27;20459;-67
2023/11/10 08:52:26;;;;;;;5.20;2.87;;;8.40;99.90;;;;;;5137322;28;20817;-68
2023/11/10 08:54:55;;;;;;;5.13;3.17;;;8.50;99.90;;;;;;5137817;28;20466;-67
2023/11/10 08:57:22;;;;;;;5.30;3.00;;;8.50;99.90;;;;;;5138075;28;20751;-68
2023/11/10 08:59:49;;;;;;;7.60;3.83;;;8.50;99.90;;;;;;5137559;28;20458;-68
2023/11/10 09:02:18;;;;;;;6.00;2.93;;;8.40;99.90;;;;;;5138187;28;20511;-69
2023/11/10 09:04:48;;;;;;;7.63;2.80;;;8.40;99.90;;;;;;5138287;27;20880;-68
2023/11/10 09:07:15;;;;;;;6.13;2.70;;;8.40;99.90;;;;;;5137365;27;20490;-68
2023/11/10 09:09:43;;;;;;;6.63;2.53;;;8.50;99.90;;;;;;5137777;28;20865;-68
2023/11/10 09:12:10;;;;;;;5.90;3.40;;;8.50;99.90;;;;;;5137642;28;20458;-68
2023/11/10 09:14:38;;;;;;;6.10;3.70;;;8.50;99.90;;;;;;5137949;28;20490;-67
2023/11/10 09:17:06;;;;;;;5.13;2.80;;;8.60;99.90;;;;;;5137542;28;20538;-67
2023/11/10 09:19:35;;;;;;;7.67;4.30;;;8.60;99.90;;;;;;5137496;28;20454;-67
2023/11/10 09:22:02;;;;;;;10.77;4.23;;;8.70;99.90;;;;;;5139442;27;20522;-67
2023/11/10 09:24:29;;;;;;;7.40;5.30;;;8.70;99.90;;;;;;5141609;27;20894;-67
2023/11/10 09:27:00;;;;;;;11.03;7.27;;;8.90;1.00;;;;;;5142004;27;20539;-67
2023/11/10 09:29:27;;;;;;;7.60;4.40;;;9.20;99.90;;;;;;5142978;27;20454;-68
2023/11/10 09:31:56;;;;;;;8.60;5.00;;;9.30;37.90;;;;;;5141881;27;20529;-67
2023/11/10 09:34:25;;;;;;;7.87;4.93;;;9.50;1.00;;;;;;5141936;27;20458;-67
2023/11/10 09:36:54;;;;;;;5.90;4.90;;;9.70;99.90;;;;;;5141681;27;20455;-67
2023/11/10 09:39:22;;;;;;;5.43;2.90;;;9.80;99.90;;;;;;5141541;27;20760;-67
2023/11/10 09:41:51;;;;;;;4.03;3.00;;;10.10;1.00;;;;;;5136195;27;20466;-66
2023/11/10 09:44:18;;;;;;;4.80;3.47;;;10.10;99.90;;;;;;5141679;27;20481;-67
2023/11/10 09:46:48;;;;;;;13.20;7.00;;;10.20;1.00;;;;;;5141071;27;20487;-66
2023/11/10 09:49:17;;;;;;;6.33;3.90;;;10.40;99.90;;;;;;5140428;27;20458;-65
2023/11/10 09:51:48;;;;;;;5.47;2.60;;;10.60;99.90;;;;;;5139115;27;20458;-65
2023/11/10 09:54:17;;;;;;;5.83;2.60;;;10.70;99.90;;;;;;5139918;27;20874;-65
2023/11/10 09:56:44;;;;;;;6.20;3.33;;;10.70;99.90;;;;;;5139549;27;20550;-65
2023/11/10 09:59:14;;;;;;;4.90;3.30;;;10.90;99.90;;;;;;5139075;27;21063;-65
2023/11/10 10:01:43;;;;;;;5.90;2.67;;;11.10;99.90;;;;;;5140298;27;20893;-65
2023/11/10 10:04:11;;;;;;;4.67;2.47;;;11.20;75.00;;;;;;5140144;27;20553;-65
2023/11/10 10:06:40;;;;;;;4.50;2.27;;;11.30;41.60;;;;;;5140853;27;20490;-66
2023/11/10 10:09:09;;;;;;;5.53;2.17;;;11.30;1.00;;;;;;5140830;27;20545;-64
2023/11/10 10:11:39;;;;;;;4.10;2.57;;;11.30;1.00;;;;;;5141127;27;20870;-65
2023/11/10 10:14:07;;;;;;;5.10;2.87;;;11.20;1.00;;;;;;5140986;27;20510;-64
2023/11/10 10:16:35;;;;;;;5.23;2.40;;;11.10;1.00;;;;;;5140766;27;20863;-64
2023/11/10 10:19:02;;;;;;;5.67;3.20;;;11.00;1.00;;;;;;5140403;27;20478;-67
2023/11/10 10:21:40;;;;;;;4.70;2.40;;;11.10;1.00;;;;;;5139716;27;20459;-64
2023/11/10 10:24:08;;;;;;;7.13;2.93;;;10.90;1.00;;;;;;5140637;27;20773;-65
2023/11/10 10:26:38;;;;;;;4.67;2.83;;;10.80;1.00;;;;;;5140935;27;21013;-65
2023/11/10 10:29:07;;;;;;;4.70;2.73;;;10.50;1.00;;;;;;5140750;27;20745;-65
2023/11/10 10:31:35;;;;;;;7.70;2.17;;;10.50;1.00;;;;;;5139986;27;20461;-64
2023/11/10 10:34:04;;;;;;;4.90;2.30;;;10.70;1.00;;;;;;5140254;27;20469;-63
2023/11/10 10:36:32;;;;;;;5.80;2.60;;;10.60;1.00;;;;;;5140419;27;20799;-64
2023/11/10 10:39:03;;;;;;;4.10;2.10;;;10.50;1.00;;;;;;5140229;27;20482;-63
2023/11/10 10:41:34;;;;;;;4.50;2.13;;;10.50;1.00;;;;;;5140227;27;20948;-63
2023/11/10 10:44:04;;;;;;;4.90;2.00;;;10.50;1.00;;;;;;5140264;27;20468;-63
2023/11/10 10:46:34;;;;;;;4.43;1.97;;;10.40;1.00;;;;;;5140333;27;20430;-64
2023/11/10 10:49:04;;;;;;;4.37;2.00;;;10.40;1.00;;;;;;5138706;27;20764;-64
2023/11/10 10:51:36;;;;;;;4.50;2.47;;;10.30;1.00;;;;;;5138619;27;20549;-63
2023/11/10 10:54:05;;;;;;;4.33;2.30;;;10.20;1.00;;;;;;5138554;27;20463;-62
2023/11/10 10:56:35;;;;;;;4.37;2.43;;;10.40;1.00;;;;;;5140004;27;20458;-63
2023/11/10 10:59:07;;;;;;;5.33;2.40;;;10.50;1.00;;;;;;5139382;27;20451;-63
2023/11/10 11:01:34;;;;;;;5.00;2.33;;;10.70;1.00;;;;;;5139792;27;20511;-63
2023/11/10 11:04:17;;;;;;;5.80;2.27;;;10.90;1.00;;;;;;5139277;27;20507;-64
2023/11/10 11:07:00;;;;;;;4.03;2.07;;;11.00;1.00;;;;;;5137701;27;20577;-63
2023/11/10 11:09:52;;;;;;;5.57;2.00;;;11.00;1.00;;;;;;5131488;27;20766;-62
2023/11/10 11:12:54;;;;;;;5.03;2.57;;;10.80;1.00;;;;;;5139692;27;20491;-61
2023/11/10 11:15:29;;;;;;;4.90;2.43;;;10.80;1.00;;;;;;5095972;27;20451;-62
2023/11/10 11:18:23;;;;;;;3.63;2.07;;;10.70;1.00;;;;;;5137818;27;20537;-63
2023/11/10 11:20:52;;;;;;;4.37;2.03;;;10.50;1.00;;;;;;5138361;27;20450;-60
2023/11/10 11:23:21;;;;;;;4.20;2.33;;;10.20;1.00;;;;;;5138924;27;20457;-62
2023/11/10 11:25:58;;;;;;;4.00;2.00;;;10.20;1.00;;;;;;5139399;27;20454;-63
2023/11/10 11:28:32;;;;;;;4.33;2.10;;;10.20;1.00;;;;;;5139348;27;20490;-63
2023/11/10 11:31:09;;;;;;;5.63;2.80;;;10.30;1.00;;;;;;5139068;27;21388;-63
2023/11/10 11:33:42;;;;;;;5.40;2.07;;;10.10;1.00;;;;;;5138955;27;20450;-63
2023/11/10 11:36:12;;;;;;;4.70;2.30;;;10.10;1.00;;;;;;5138867;27;20838;-64
2023/11/10 11:38:41;;;;;;;5.63;2.00;;;10.20;1.00;;;;;;5138545;27;20596;-63
2023/11/10 11:41:09;;;;;;;4.03;2.10;;;10.10;1.00;;;;;;5135282;28;20433;-62
2023/11/10 11:43:35;;;;;;;5.93;2.63;;;10.00;1.00;;;;;;5134329;27;20459;-62
2023/11/10 11:46:04;;;;;;;3.70;2.07;;;9.80;1.00;;;;;;5134797;27;20458;-62
2023/11/10 11:48:35;;;;;;;8.73;2.80;;;9.70;1.00;;;;;;5134897;27;20524;-63
2023/11/10 11:51:05;;;;;;;3.73;2.40;;;9.70;1.00;;;;;;5134791;28;20462;-63
2023/11/10 11:53:33;;;;;;;4.60;1.87;;;9.70;1.00;;;;;;5135623;27;20464;-62
2023/11/10 11:56:01;;;;;;;5.27;1.80;;;9.80;1.00;;;;;;5136568;28;20481;-62
2023/11/10 11:58:29;;;;;;;5.87;2.40;;;9.70;1.00;;;;;;5138062;28;20479;-63
2023/11/10 12:00:57;;;;;;;3.27;2.00;;;9.70;1.00;;;;;;5137393;27;20450;-63
2023/11/10 12:03:27;;;;;;;5.83;2.13;;;9.60;1.00;;;;;;5137770;28;20936;-63
2023/11/10 12:05:57;;;;;;;3.70;2.80;;;9.50;1.00;;;;;;5137858;27;20485;-62
2023/11/10 12:08:24;;;;;;;6.63;2.50;;;9.50;1.00;;;;;;5137631;28;20512;-62
2023/11/10 12:10:52;;;;;;;4.77;2.13;;;9.40;1.00;;;;;;5137711;27;20547;-63
2023/11/10 12:13:22;;;;;;;6.30;1.97;;;9.40;1.00;;;;;;5136345;28;20504;-62
2023/11/10 12:15:49;;;;;;;4.53;2.40;;;9.50;1.00;;;;;;5136598;28;20462;-62
2023/11/10 12:18:18;;;;;;;5.20;2.20;;;9.50;1.00;;;;;;5137250;28;20468;-64
2023/11/10 12:20:45;;;;;;;6.23;2.00;;;9.40;1.00;;;;;;5138002;28;20511;-64
2023/11/10 12:23:14;;;;;;;5.67;2.43;;;9.30;1.00;;;;;;5137679;27;20553;-65
2023/11/10 12:25:42;;;;;;;5.47;2.40;;;9.20;1.00;;;;;;5136872;28;20458;-65
2023/11/10 12:28:13;;;;;;;7.50;3.73;;;9.20;1.00;;;;;;5136049;27;20585;-64
2023/11/10 12:30:42;;;;;;;3.53;2.07;;;9.10;62.10;;;;;;5134610;28;20550;-64
2023/11/10 12:33:10;;;;;;;4.23;2.20;;;9.20;99.90;;;;;;5135675;28;20785;-65
2023/11/10 12:35:39;;;;;;;6.40;2.40;;;9.10;99.90;;;;;;5135058;27;20725;-67
2023/11/10 12:38:07;;;;;;;4.00;2.00;;;9.10;99.90;;;;;;5086921;27;1364561;-66
2023/11/10 12:40:37;;;;;;;4.90;2.47;;;9.10;99.90;;;;;;5137377;27;20287;-63
2023/11/10 12:43:04;;;;;;;6.07;2.37;;;9.10;99.90;;;;;;5137746;27;20806;-64
2023/11/10 12:45:31;;;;;;;4.20;2.50;;;9.00;99.90;;;;;;5138373;27;20484;-64
2023/11/10 12:47:59;;;;;;;6.27;2.50;;;8.90;1.00;;;;;;5137154;27;20587;-63
2023/11/10 12:50:30;;;;;;;5.97;2.40;;;8.70;1.00;;;;;;5137441;27;20543;-65
2023/11/10 12:52:58;;;;;;;4.97;2.03;;;8.60;1.00;;;;;;5137627;27;20450;-65
2023/11/10 12:55:27;;;;;;;6.43;2.20;;;8.60;99.90;;;;;;5137146;27;20450;-61
2023/11/10 12:57:57;;;;;;;5.73;1.90;;;8.50;99.90;;;;;;5137803;27;20855;-63
2023/11/10 13:00:25;;;;;;;4.17;2.00;;;8.50;99.90;;;;;;5137787;28;20446;-62
2023/11/10 13:02:52;;;;;;;7.63;2.60;;;8.50;1.00;;;;;;5137897;27;20454;-63